Time;durP1;ratioP1;P1;durP2;ratioP2;P2;SDS_P1;SDS_P2;PMS_P1;PMS_P2;Temp;Humidity;BMP_temperature;BMP_pressure;BME280_temperature;BME280_humidity;BME280_pressure;Samples;Min_cycle;Max_cycle;Signal;HPM_P1;HPM_P2
2023/11/29 00:00:12;;;;;;;16.02;10.13;;;;;;;0.05;100.00;100202.91;5112208;28;20050;-51
2023/11/29 00:02:41;;;;;;;13.70;9.57;;;;;;;0.04;100.00;100182.28;5112093;28;20075;-52
2023/11/29 00:05:10;;;;;;;13.45;9.65;;;;;;;-0.03;100.00;100168.69;5111909;28;20510;-50
2023/11/29 00:07:40;;;;;;;13.15;9.85;;;;;;;-0.01;100.00;100162.59;5111936;28;20047;-50
2023/11/29 00:10:09;;;;;;;14.27;9.80;;;;;;;0.03;100.00;100153.00;5111674;28;20051;-52
2023/11/29 00:12:38;;;;;;;16.48;11.43;;;;;;;0.02;100.00;100156.47;5110769;28;20062;-48
2023/11/29 00:15:08;;;;;;;15.32;11.18;;;;;;;0.00;100.00;100145.34;5108906;28;20047;-50
2023/11/29 00:17:37;;;;;;;14.55;11.35;;;;;;;-0.03;100.00;100142.84;5111267;28;20131;-49
2023/11/29 00:20:07;;;;;;;16.88;11.07;;;;;;;-0.02;100.00;100124.69;5111824;28;20537;-48
2023/11/29 00:22:36;;;;;;;16.50;11.63;;;;;;;0.02;100.00;100124.63;5111733;28;20048;-50
2023/11/29 00:25:04;;;;;;;15.82;10.63;;;;;;;0.06;100.00;100124.44;5111390;28;20044;-53
2023/11/29 00:27:32;;;;;;;17.13;12.13;;;;;;;0.02;100.00;100129.78;5111687;28;20050;-50
2023/11/29 00:30:01;;;;;;;18.15;12.23;;;;;;;0.04;100.00;100127.97;5111901;28;20561;-50
2023/11/29 00:32:29;;;;;;;16.80;12.70;;;;;;;0.00;100.00;100127.25;5111872;28;20046;-51
2023/11/29 00:34:58;;;;;;;17.38;12.13;;;;;;;0.00;100.00;100114.34;5111334;28;20054;-49
2023/11/29 00:37:30;;;;;;;18.65;12.75;;;;;;;0.04;100.00;100113.34;5108070;28;20051;-52
2023/11/29 00:39:58;;;;;;;15.82;11.82;;;;;;;0.01;100.00;100107.41;5110075;28;20123;-52
2023/11/29 00:42:26;;;;;;;16.70;11.90;;;;;;;-0.01;100.00;100102.28;5111831;28;20383;-54
2023/11/29 00:44:55;;;;;;;17.02;11.77;;;;;;;0.03;100.00;100100.44;5111582;28;20079;-52
2023/11/29 00:47:23;;;;;;;15.82;10.85;;;;;;;0.01;100.00;100092.72;5111361;28;20036;-52
2023/11/29 00:49:51;;;;;;;17.40;10.82;;;;;;;0.02;100.00;100093.59;5093396;28;20505;-50
2023/11/29 00:52:21;;;;;;;16.83;10.52;;;;;;;0.03;100.00;100085.78;5111491;28;20052;-51
2023/11/29 00:54:49;;;;;;;15.43;10.75;;;;;;;0.07;100.00;100104.59;5111662;28;20153;-51
2023/11/29 00:57:17;;;;;;;14.65;10.48;;;;;;;0.08;100.00;100135.59;5111554;28;20043;-51
2023/11/29 00:59:45;;;;;;;18.30;11.07;;;;;;;0.07;100.00;100108.06;5111915;28;20051;-50
2023/11/29 01:02:15;;;;;;;17.52;9.82;;;;;;;0.06;100.00;100092.59;5111655;28;20151;-48
2023/11/29 01:04:44;;;;;;;14.48;9.73;;;;;;;0.07;100.00;100084.78;5112314;28;20044;-45
2023/11/29 01:07:13;;;;;;;13.93;9.88;;;;;;;0.05;100.00;100081.38;5115379;28;20047;-48
2023/11/29 01:09:42;;;;;;;14.02;10.48;;;;;;;0.06;100.00;100062.41;5114978;28;20087;-48
2023/11/29 01:12:11;;;;;;;13.80;9.73;;;;;;;0.09;100.00;100056.28;5114993;28;20463;-50
2023/11/29 01:14:40;;;;;;;13.45;9.77;;;;;;;0.09;100.00;100059.69;5115062;28;20043;-46
2023/11/29 01:17:08;;;;;;;13.43;9.23;;;;;;;0.12;100.00;100057.03;5114870;28;20069;-48
2023/11/29 01:19:36;;;;;;;14.57;9.70;;;;;;;0.15;100.00;100053.47;5115115;28;20466;-46
2023/11/29 01:22:05;;;;;;;14.50;10.75;;;;;;;0.13;100.00;100052.69;5114809;28;20054;-47
2023/11/29 01:24:33;;;;;;;13.50;10.32;;;;;;;0.14;100.00;100036.28;5114980;28;20122;-47
2023/11/29 01:27:03;;;;;;;14.88;10.60;;;;;;;0.12;100.00;100046.69;5114816;28;20123;-47
2023/11/29 01:29:31;;;;;;;14.45;11.23;;;;;;;0.08;100.00;100039.06;5114677;28;20044;-50
2023/11/29 01:31:59;;;;;;;17.08;12.38;;;;;;;0.08;100.00;100047.69;5114566;28;20504;-50
2023/11/29 01:34:27;;;;;;;16.95;12.13;;;;;;;0.10;100.00;100039.88;5096834;28;20079;-46
2023/11/29 01:36:56;;;;;;;15.82;12.40;;;;;;;0.10;100.00;100038.13;5114631;28;20043;-48
2023/11/29 01:39:24;;;;;;;15.57;11.93;;;;;;;0.12;100.00;100041.50;5114451;28;20043;-48
2023/11/29 01:41:52;;;;;;;17.15;12.43;;;;;;;0.14;100.00;100026.78;5114554;28;20043;-48
2023/11/29 01:44:22;;;;;;;18.40;12.55;;;;;;;0.12;100.00;100023.41;5096147;28;20055;-46
2023/11/29 01:46:51;;;;;;;16.73;11.75;;;;;;;0.10;100.00;100011.44;5114572;28;20502;-46
2023/11/29 01:49:20;;;;;;;17.10;12.02;;;;;;;0.13;100.00;100025.06;5114614;28;20050;-48
2023/11/29 01:51:49;;;;;;;14.13;11.18;;;;;;;0.17;100.00;100031.81;5114335;28;20563;-46
2023/11/29 01:54:17;;;;;;;15.05;11.10;;;;;;;0.17;100.00;100031.81;5114144;28;20046;-50
2023/11/29 01:56:45;;;;;;;15.25;11.15;;;;;;;0.23;100.00;100037.69;5114380;28;20122;-49
2023/11/29 01:59:17;;;;;;;12.70;9.90;;;;;;;0.24;100.00;100029.88;5114818;28;20052;-52
2023/11/29 02:01:47;;;;;;;11.82;8.90;;;;;;;0.24;100.00;100029.88;5114071;28;20987;-50
2023/11/29 02:04:15;;;;;;;13.40;10.45;;;;;;;0.29;100.00;100024.56;5113919;28;20075;-47
2023/11/29 02:06:45;;;;;;;11.57;8.73;;;;;;;0.28;100.00;100022.84;5113862;28;20059;-46
2023/11/29 02:09:14;;;;;;;13.85;8.07;;;;;;;0.30;100.00;100015.88;5113688;28;20063;-47
2023/11/29 02:11:44;;;;;;;11.80;7.45;;;;;;;0.31;100.00;100012.41;5095778;28;20044;-48
2023/11/29 02:14:13;;;;;;;10.20;6.38;;;;;;;0.32;100.00;100003.75;5113466;28;20071;-46
2023/11/29 02:16:41;;;;;;;9.48;6.28;;;;;;;0.35;100.00;100001.03;5112834;28;20051;-48
2023/11/29 02:19:11;;;;;;;9.05;6.13;;;;;;;0.36;100.00;100000.16;5095608;28;20078;-46
2023/11/29 02:21:39;;;;;;;9.32;5.97;;;;;;;0.35;100.00;99993.28;5114076;28;20043;-47
2023/11/29 02:24:12;;;;;;;10.63;6.60;;;;;;;0.32;100.00;99986.47;5113650;28;20127;-47
2023/11/29 02:26:41;;;;;;;13.27;7.55;;;;;;;0.32;100.00;99993.41;5095183;28;20135;-48
2023/11/29 02:29:10;;;;;;;10.63;7.57;;;;;;;0.35;100.00;99988.09;5113564;28;20498;-48
2023/11/29 02:31:42;;;;;;;11.50;7.85;;;;;;;0.32;100.00;99980.47;5110725;28;20055;-47
2023/11/29 02:34:10;;;;;;;10.48;7.85;;;;;;;0.34;100.00;99976.06;5092246;28;20143;-48
2023/11/29 02:36:38;;;;;;;10.90;7.72;;;;;;;0.35;100.00;99974.34;5113370;28;20036;-47
2023/11/29 02:39:07;;;;;;;11.30;7.90;;;;;;;0.32;100.00;99972.69;5095121;28;20056;-46
2023/11/29 02:41:37;;;;;;;10.40;7.55;;;;;;;0.36;100.00;99982.03;5095062;28;20436;-47
2023/11/29 02:44:07;;;;;;;11.75;7.82;;;;;;;0.40;100.00;99970.69;5113249;28;20130;-47
2023/11/29 02:46:35;;;;;;;10.18;7.53;;;;;;;0.37;100.00;99968.22;5113124;28;20044;-48
2023/11/29 02:49:03;;;;;;;9.95;7.53;;;;;;;0.39;100.00;99974.16;5111486;28;20050;-50
2023/11/29 02:51:32;;;;;;;9.93;7.50;;;;;;;0.39;100.00;99963.81;5109536;28;20047;-50
2023/11/29 02:54:00;;;;;;;10.35;7.85;;;;;;;0.38;100.00;99959.53;5112214;28;20384;-48
2023/11/29 02:56:29;;;;;;;10.90;7.47;;;;;;;0.37;100.00;99942.34;5112950;28;20402;-49
2023/11/29 02:58:57;;;;;;;10.32;7.70;;;;;;;0.39;100.00;99940.53;5094514;28;20165;-54
2023/11/29 03:01:26;;;;;;;10.35;7.82;;;;;;;0.42;100.00;99932.63;5113127;28;20502;-51
2023/11/29 03:03:54;;;;;;;10.25;7.57;;;;;;;0.40;100.00;99924.09;5112779;28;20043;-49
2023/11/29 03:06:23;;;;;;;12.57;8.18;;;;;;;0.44;100.00;99923.09;5112986;28;20105;-47
2023/11/29 03:08:51;;;;;;;12.23;8.50;;;;;;;0.43;100.00;99920.56;5112680;28;20059;-46
2023/11/29 03:11:19;;;;;;;12.35;9.23;;;;;;;0.41;100.00;99917.19;5112916;28;20475;-51
2023/11/29 03:13:47;;;;;;;13.48;10.25;;;;;;;0.45;100.00;99916.16;5094622;28;20043;-48
2023/11/29 03:16:15;;;;;;;13.13;10.57;;;;;;;0.45;100.00;99911.00;5112697;28;20054;-46
2023/11/29 03:18:45;;;;;;;13.95;10.90;;;;;;;0.46;100.00;99908.38;5112641;28;20139;-49
2023/11/29 03:21:13;;;;;;;13.77;10.55;;;;;;;0.47;100.00;99909.19;5112919;28;20044;-51
2023/11/29 03:23:43;;;;;;;14.02;10.32;;;;;;;0.50;100.00;99914.25;5094209;28;20086;-48
2023/11/29 03:26:12;;;;;;;15.05;10.75;;;;;;;0.48;100.00;99919.47;5112612;28;20092;-50
2023/11/29 03:28:40;;;;;;;14.90;10.80;;;;;;;0.48;100.00;99906.53;5111644;28;20055;-49
2023/11/29 03:31:08;;;;;;;12.70;11.13;;;;;;;0.49;100.00;99909.97;5112352;28;20051;-48
2023/11/29 03:33:36;;;;;;;13.15;11.07;;;;;;;0.49;100.00;99900.47;5112088;28;20055;-48
2023/11/29 03:36:08;;;;;;;15.10;12.32;;;;;;;0.51;100.00;99890.06;5112116;28;20054;-48
2023/11/29 03:38:36;;;;;;;15.60;11.95;;;;;;;0.51;100.00;99887.47;5112425;28;20054;-47
2023/11/29 03:41:05;;;;;;;15.90;12.00;;;;;;;0.49;100.00;99884.94;5112215;28;20058;-49
2023/11/29 03:43:34;;;;;;;14.32;12.23;;;;;;;0.47;100.00;99889.31;5112219;28;20043;-48
2023/11/29 03:46:02;;;;;;;13.65;11.73;;;;;;;0.49;100.00;99884.94;5112160;28;20118;-51
2023/11/29 03:48:30;;;;;;;13.52;11.32;;;;;;;0.50;100.00;99873.72;5112054;28;20069;-48
2023/11/29 03:51:00;;;;;;;14.88;11.45;;;;;;;0.48;100.00;99861.72;5112139;28;20047;-48
2023/11/29 03:53:33;;;;;;;15.48;11.63;;;;;;;0.54;100.00;99864.06;5112073;28;20101;-50
2023/11/29 03:56:01;;;;;;;14.73;11.77;;;;;;;0.52;100.00;99850.34;5112279;28;20052;-48
2023/11/29 03:58:29;;;;;;;16.05;11.93;;;;;;;0.49;100.00;99850.47;5112328;28;20044;-50
2023/11/29 04:00:57;;;;;;;15.80;12.35;;;;;;;0.44;100.00;99842.06;5112124;28;20047;-48
2023/11/29 04:03:25;;;;;;;16.55;12.07;;;;;;;0.39;100.00;99842.22;5111782;28;20451;-51
2023/11/29 04:05:54;;;;;;;17.08;12.25;;;;;;;0.38;100.00;99827.59;5091704;28;20065;-52
2023/11/29 04:08:22;;;;;;;15.07;11.82;;;;;;;0.38;100.00;99827.59;5089800;28;20071;-51
2023/11/29 04:10:52;;;;;;;19.85;12.48;;;;;;;0.38;100.00;99832.75;5107754;28;20134;-49
2023/11/29 04:13:21;;;;;;;17.00;12.10;;;;;;;0.42;100.00;99831.75;5110791;28;20063;-49
2023/11/29 04:15:49;;;;;;;16.00;11.75;;;;;;;0.45;100.00;99831.63;5093631;28;20040;-48
2023/11/29 04:18:17;;;;;;;14.07;11.25;;;;;;;0.42;100.00;99818.81;5110663;28;20126;-50
2023/11/29 04:20:45;;;;;;;16.27;11.95;;;;;;;0.41;100.00;99811.09;5108321;28;20138;-50
2023/11/29 04:23:13;;;;;;;20.15;13.15;;;;;;;0.43;100.00;99812.72;5110555;28;20105;-51
2023/11/29 04:25:42;;;;;;;18.27;12.38;;;;;;;0.41;100.00;99809.38;5108235;28;20134;-50
2023/11/29 04:28:11;;;;;;;17.23;12.57;;;;;;;0.42;100.00;99811.03;5107918;28;20048;-53
2023/11/29 04:30:39;;;;;;;16.35;11.82;;;;;;;0.42;100.00;99812.81;5111829;28;20067;-49
2023/11/29 04:33:07;;;;;;;17.38;12.55;;;;;;;0.41;100.00;99806.78;5111703;28;20047;-51
2023/11/29 04:35:35;;;;;;;15.20;11.90;;;;;;;0.45;100.00;99803.19;5093111;28;20047;-50
2023/11/29 04:38:04;;;;;;;16.17;11.48;;;;;;;0.44;100.00;99795.50;5111853;28;20559;-48
2023/11/29 04:40:32;;;;;;;16.73;12.43;;;;;;;0.43;100.00;99794.63;5111332;28;20055;-49
2023/11/29 04:43:00;;;;;;;19.05;12.40;;;;;;;0.42;100.00;99786.94;5112307;28;20046;-49
2023/11/29 04:45:30;;;;;;;16.48;11.40;;;;;;;0.48;100.00;99777.19;5111815;28;20585;-55
2023/11/29 04:47:58;;;;;;;16.58;11.30;;;;;;;0.49;100.00;99778.00;5113952;28;20075;-49
2023/11/29 04:50:29;;;;;;;16.52;10.93;;;;;;;0.50;100.00;99770.22;5112943;28;20093;-51
2023/11/29 04:52:57;;;;;;;16.13;11.10;;;;;;;0.50;100.00;99783.16;5112409;28;20039;-50
2023/11/29 04:55:26;;;;;;;15.65;11.77;;;;;;;0.54;100.00;99786.44;5110986;28;20075;-50
2023/11/29 04:57:54;;;;;;;15.27;11.50;;;;;;;0.53;100.00;99771.81;5112506;28;20096;-50
2023/11/29 05:00:22;;;;;;;16.27;11.07;;;;;;;0.55;100.00;99795.06;5115298;28;20047;-49
2023/11/29 05:02:52;;;;;;;16.08;10.95;;;;;;;0.58;100.00;99788.00;5113608;28;20044;-50
2023/11/29 05:05:20;;;;;;;14.20;10.95;;;;;;;0.55;100.00;99772.59;5111232;28;20058;-50
2023/11/29 05:07:48;;;;;;;15.65;10.77;;;;;;;0.59;100.00;99774.16;5111801;28;20059;-49
2023/11/29 05:10:16;;;;;;;14.82;9.15;;;;;;;0.57;100.00;99775.94;5110434;28;20052;-53
2023/11/29 05:12:45;;;;;;;14.85;10.25;;;;;;;0.57;100.00;99759.59;5111178;28;20136;-52
2023/11/29 05:15:13;;;;;;;18.15;10.30;;;;;;;0.55;100.00;99753.66;5113039;28;20051;-52
2023/11/29 05:17:54;;;;;;;13.40;9.70;;;;;;;0.57;100.00;99749.25;5114899;28;20426;-51
2023/11/29 05:20:22;;;;;;;14.13;9.93;;;;;;;0.62;100.00;99753.31;5114313;28;20044;-51
2023/11/29 05:22:51;;;;;;;15.10;10.10;;;;;;;0.61;100.00;99748.22;5111996;28;20634;-53
2023/11/29 05:25:20;;;;;;;15.20;11.13;;;;;;;0.63;100.00;99749.84;5110142;28;20059;-54
2023/11/29 05:27:51;;;;;;;14.38;10.50;;;;;;;0.64;100.00;99740.31;5111240;28;20043;-50
2023/11/29 05:30:19;;;;;;;16.77;10.98;;;;;;;0.63;100.00;99749.00;5110675;28;20043;-51
2023/11/29 05:32:47;;;;;;;13.82;9.80;;;;;;;0.61;100.00;99737.88;5114224;28;20055;-50
2023/11/29 05:35:17;;;;;;;13.00;9.88;;;;;;;0.59;100.00;99743.09;5113362;28;20050;-52
2023/11/29 05:37:45;;;;;;;18.15;11.00;;;;;;;0.62;100.00;99750.72;5111123;28;20517;-48
2023/11/29 05:40:13;;;;;;;16.15;10.82;;;;;;;0.63;100.00;99752.44;5095063;28;20051;-50
2023/11/29 05:42:41;;;;;;;15.15;10.57;;;;;;;0.62;100.00;99760.25;5114474;28;20039;-52
2023/11/29 05:45:10;;;;;;;15.98;10.90;;;;;;;0.64;100.00;99767.06;5110672;28;20043;-48
2023/11/29 05:47:38;;;;;;;14.55;10.52;;;;;;;0.65;100.00;99771.31;5111605;28;20539;-48
2023/11/29 05:50:08;;;;;;;16.73;10.35;;;;;;;0.64;100.00;99764.47;5112417;28;20128;-53
2023/11/29 05:52:37;;;;;;;14.35;10.48;;;;;;;0.67;100.00;99758.31;5110300;28;20081;-53
2023/11/29 05:55:07;;;;;;;14.20;10.48;;;;;;;0.66;100.00;99754.03;5112930;28;20544;-50
2023/11/29 05:57:35;;;;;;;14.93;10.98;;;;;;;0.63;100.00;99752.44;5113995;28;20044;-51
2023/11/29 06:00:11;;;;;;;14.88;10.35;;;;;;;0.64;100.00;99753.25;5114105;28;20078;-52
2023/11/29 06:02:42;;;;;;;16.05;11.63;;;;;;;0.65;100.00;99755.78;5114076;28;20046;-51
2023/11/29 06:05:10;;;;;;;15.63;10.48;;;;;;;0.67;100.00;99747.97;5113761;28;20059;-48
2023/11/29 06:07:40;;;;;;;15.60;10.18;;;;;;;0.66;100.00;99752.28;5113973;28;20047;-50
2023/11/29 06:10:10;;;;;;;15.60;10.57;;;;;;;0.67;100.00;99753.97;5113625;28;20422;-46
2023/11/29 06:12:38;;;;;;;14.32;10.00;;;;;;;0.67;100.00;99756.56;5113842;28;20054;-46
2023/11/29 06:15:08;;;;;;;16.85;10.02;;;;;;;0.70;100.00;99747.84;5113479;28;20036;-46
2023/11/29 06:17:36;;;;;;;14.25;9.05;;;;;;;0.74;100.00;99756.31;5113775;28;20127;-49
2023/11/29 06:20:09;;;;;;;13.53;9.63;;;;;;;0.71;100.00;99765.06;5095455;28;20082;-49
2023/11/29 06:22:37;;;;;;;12.50;8.80;;;;;;;0.73;100.00;99757.22;5092133;28;20044;-49
2023/11/29 06:25:08;;;;;;;14.38;8.93;;;;;;;0.79;100.00;99763.00;5110492;28;20043;-47
2023/11/29 06:27:39;;;;;;;12.05;8.00;;;;;;;0.79;100.00;99760.41;5113664;28;20540;-47
2023/11/29 06:30:11;;;;;;;12.90;8.25;;;;;;;0.77;100.00;99764.78;5113525;28;20146;-48
2023/11/29 06:32:42;;;;;;;12.57;7.32;;;;;;;0.77;100.00;99764.78;5113904;28;20473;-48
2023/11/29 06:35:16;;;;;;;13.77;7.18;;;;;;;0.76;100.00;99760.50;5113330;28;20059;-48
2023/11/29 06:37:47;;;;;;;11.00;6.97;;;;;;;0.77;100.00;99756.19;5113556;28;20047;-48
2023/11/29 06:40:25;;;;;;;14.70;6.53;;;;;;;0.77;100.00;99763.97;5113344;28;20043;-48
2023/11/29 06:42:55;;;;;;;9.88;5.28;;;;;;;0.80;100.00;99774.19;5113310;28;20069;-48
2023/11/29 06:45:23;;;;;;;9.15;5.00;;;;;;;0.81;100.00;99776.69;5094636;28;20047;-49
2023/11/29 06:47:52;;;;;;;8.43;4.05;;;;;;;0.88;100.00;99779.03;5112995;28;20075;-51
2023/11/29 06:50:20;;;;;;;9.43;3.83;;;;;;;0.84;100.00;99783.50;5113236;28;20798;-49
2023/11/29 06:52:48;;;;;;;8.98;3.53;;;;;;;0.90;100.00;99782.38;5113107;28;20130;-48
2023/11/29 06:55:17;;;;;;;9.38;3.90;;;;;;;0.90;100.00;99792.75;5094800;28;20513;-47
2023/11/29 06:57:47;;;;;;;6.75;3.15;;;;;;;0.88;100.00;99794.56;5113039;28;20430;-46
2023/11/29 07:00:17;;;;;;;6.65;3.20;;;;;;;0.93;100.00;99803.00;5112835;28;20051;-50
2023/11/29 07:02:46;;;;;;;9.23;3.10;;;;;;;0.90;100.00;99805.69;5113092;28;20155;-49
2023/11/29 07:05:15;;;;;;;9.38;4.07;;;;;;;0.93;100.00;99808.19;5112858;28;20036;-51
2023/11/29 07:07:46;;;;;;;6.45;2.67;;;;;;;0.92;100.00;99806.50;5112779;28;20510;-51
2023/11/29 07:10:14;;;;;;;6.65;2.60;;;;;;;0.94;100.00;99815.88;5112388;28;20036;-45
2023/11/29 07:12:46;;;;;;;7.13;2.40;;;;;;;0.99;100.00;99808.72;5112336;28;20043;-48
2023/11/29 07:15:16;;;;;;;7.15;2.50;;;;;;;0.98;100.00;99822.59;5112512;28;20075;-47
2023/11/29 07:17:44;;;;;;;10.18;2.40;;;;;;;0.96;100.00;99823.56;5094276;28;20558;-47
2023/11/29 07:20:12;;;;;;;6.70;2.10;;;;;;;0.96;100.00;99826.16;5112592;28;20391;-48
2023/11/29 07:22:43;;;;;;;7.15;2.05;;;;;;;0.98;100.00;99839.88;5112523;28;20073;-46
2023/11/29 07:25:14;;;;;;;5.55;2.20;;;;;;;1.02;100.00;99854.38;5112349;28;20047;-48
2023/11/29 07:27:42;;;;;;;5.38;2.13;;;;;;;1.03;100.00;99852.66;5112371;28;20059;-45
2023/11/29 07:30:12;;;;;;;4.78;1.30;;;;;;;1.07;100.00;99864.56;5112294;28;20094;-46
2023/11/29 07:32:40;;;;;;;3.13;1.30;;;;;;;1.07;100.00;99861.97;5112377;28;20122;-49
2023/11/29 07:35:10;;;;;;;6.25;1.30;;;;;;;1.06;100.00;99876.66;5093727;28;20047;-48
2023/11/29 07:37:38;;;;;;;5.03;1.42;;;;;;;1.08;100.00;99879.19;5112121;28;20050;-48
2023/11/29 07:40:08;;;;;;;5.10;1.25;;;;;;;1.11;100.00;99879.91;5112329;28;20153;-47
2023/11/29 07:42:38;;;;;;;5.03;1.20;;;;;;;1.16;100.00;99877.97;5094156;28;20534;-47
2023/11/29 07:45:08;;;;;;;4.53;1.17;;;;;;;1.18;100.00;99886.50;5112562;28;20043;-47
2023/11/29 07:47:46;;;;;;;5.45;1.27;;;;;;;1.20;100.00;99885.59;5091393;28;20050;-47
2023/11/29 07:50:15;;;;;;;5.85;1.25;;;;;;;1.21;100.00;99888.13;5108534;28;20494;-48
2023/11/29 07:52:43;;;;;;;6.35;1.30;;;;;;;1.22;100.00;99891.59;5112130;28;20043;-46
2023/11/29 07:55:12;;;;;;;6.22;1.38;;;;;;;1.21;100.00;99898.50;5112127;28;20046;-46
2023/11/29 07:57:41;;;;;;;3.25;1.00;;;;;;;1.17;100.00;99895.22;5112022;28;20057;-48
2023/11/29 08:00:12;;;;;;;3.35;1.38;;;;;;;1.16;100.00;99905.63;5112253;28;20036;-49
2023/11/29 08:02:45;;;;;;;4.40;1.40;;;;;;;1.14;100.00;99903.09;5109026;28;20031;-48
2023/11/29 08:05:15;;;;;;;6.82;1.35;;;;;;;1.14;100.00;99920.38;5108965;28;20043;-48
2023/11/29 08:07:44;;;;;;;6.47;1.38;;;;;;;1.14;100.00;99921.22;5093438;28;20118;-47
2023/11/29 08:10:14;;;;;;;7.28;1.48;;;;;;;1.13;100.00;99913.50;5111866;28;20595;-49
2023/11/29 08:12:43;;;;;;;3.10;1.23;;;;;;;1.17;100.00;99915.94;5111976;28;20070;-48
2023/11/29 08:15:13;;;;;;;3.45;1.50;;;;;;;1.23;100.00;99906.19;5114919;28;20036;-49
2023/11/29 08:17:41;;;;;;;5.60;1.50;;;;;;;1.36;100.00;99917.75;5116020;28;20046;-46
2023/11/29 08:20:14;;;;;;;5.20;1.70;;;;;;;1.47;100.00;99920.75;5116152;28;20048;-47
2023/11/29 08:22:45;;;;;;;5.13;1.63;;;;;;;1.51;100.00;99935.25;5115678;28;20122;-51
2023/11/29 08:25:14;;;;;;;5.07;1.77;;;;;;;1.70;100.00;99939.66;5116074;28;20044;-51
2023/11/29 08:27:46;;;;;;;7.00;1.48;;;;;;;1.73;100.00;99944.69;5097425;28;20500;-51
2023/11/29 08:30:17;;;;;;;4.57;1.50;;;;;;;1.81;100.00;99941.78;5115506;28;20058;-46
2023/11/29 08:32:45;;;;;;;6.07;1.77;;;;;;;1.82;100.00;99953.84;5115410;28;20040;-48
2023/11/29 08:35:17;;;;;;;6.35;2.10;;;;;;;1.82;100.00;99959.88;5115467;28;20046;-48
2023/11/29 08:37:45;;;;;;;6.90;2.00;;;;;;;1.81;100.00;99960.78;5115884;28;20043;-50
2023/11/29 08:40:13;;;;;;;7.95;2.00;;;;;;;1.78;100.00;99966.09;5115677;28;20380;-49
2023/11/29 08:42:41;;;;;;;6.40;1.98;;;;;;;1.76;100.00;99965.31;5115839;28;20050;-47
2023/11/29 08:45:10;;;;;;;4.43;1.80;;;;;;;1.76;100.00;99974.84;5097399;28;20055;-48
2023/11/29 08:47:42;;;;;;;4.82;1.95;;;;;;;1.75;100.00;99979.19;5115337;28;20421;-48
2023/11/29 08:50:11;;;;;;;7.10;2.10;;;;;;;1.72;100.00;99984.50;5115618;28;20051;-46
2023/11/29 08:52:42;;;;;;;9.05;2.50;;;;;;;1.70;100.00;99996.69;5115584;28;20534;-49
2023/11/29 08:55:12;;;;;;;8.73;2.25;;;;;;;1.68;100.00;99993.31;5115589;28;20087;-49
2023/11/29 08:57:43;;;;;;;9.77;2.22;;;;;;;1.68;100.00;100003.69;5097440;28;20055;-48
2023/11/29 09:00:14;;;;;;;6.07;2.50;;;;;;;1.62;100.00;100002.19;5115554;28;20123;-47
2023/11/29 09:02:43;;;;;;;6.90;2.60;;;;;;;1.61;100.00;100008.28;5115467;28;20713;-46
2023/11/29 09:05:13;;;;;;;8.68;2.58;;;;;;;1.67;100.00;100010.59;5115364;28;20047;-47
2023/11/29 09:07:42;;;;;;;6.70;2.83;;;;;;;1.67;100.00;100014.97;5115504;28;20039;-48
2023/11/29 09:10:12;;;;;;;8.05;2.67;;;;;;;1.73;100.00;100017.28;5112712;28;20070;-47
2023/11/29 09:12:40;;;;;;;8.38;2.88;;;;;;;1.81;100.00;100007.47;5115129;28;20097;-46
2023/11/29 09:15:09;;;;;;;6.57;2.85;;;;;;;1.93;100.00;100019.03;5114482;28;20097;-48
2023/11/29 09:17:40;;;;;;;7.35;3.08;;;;;;;2.05;100.00;100016.88;5114393;28;20105;-48
2023/11/29 09:20:09;;;;;;;9.80;3.55;;;;;;;2.15;100.00;100018.13;5114738;28;20043;-50
2023/11/29 09:22:37;;;;;;;9.82;3.47;;;;;;;2.31;100.00;100026.94;5096480;28;20055;-52
2023/11/29 09:25:11;;;;;;;7.38;2.95;;;;;;;2.42;100.00;100026.47;5113956;28;20391;-49
2023/11/29 09:27:40;;;;;;;6.68;3.03;;;;;;;2.39;100.00;100036.13;5114164;28;20142;-46
2023/11/29 09:30:10;;;;;;;10.95;3.13;;;;;;;2.56;100.00;100043.19;5114822;28;20043;-54
2023/11/29 09:32:38;;;;;;;7.70;3.17;;;;;;;2.68;100.00;100047.81;5114844;28;20083;-54
2023/11/29 09:35:07;;;;;;;10.77;3.33;;;;;;;2.75;100.00;100048.41;5114806;28;20105;-53
2023/11/29 09:37:35;;;;;;;9.80;3.50;;;;;;;2.82;100.00;100045.47;5114103;28;20382;-55
2023/11/29 09:40:06;;;;;;;9.73;3.40;;;;;;;3.01;100.00;100049.78;5114051;28;20057;-51
2023/11/29 09:42:37;;;;;;;8.63;2.80;;;;;;;3.12;100.00;100055.34;5110915;28;20068;-51
2023/11/29 09:45:11;;;;;;;10.47;3.10;;;;;;;3.17;100.00;100058.56;5111662;28;20109;-52
2023/11/29 09:47:40;;;;;;;6.88;2.85;;;;;;;3.41;100.00;100054.88;5114501;28;20056;-52
2023/11/29 09:50:11;;;;;;;6.85;2.80;;;;;;;3.61;100.00;100052.13;5114674;28;20071;-50
2023/11/29 09:52:40;;;;;;;7.00;2.55;;;;;;;3.72;100.00;100056.81;5112092;28;20058;-49
2023/11/29 09:55:09;;;;;;;7.22;3.00;;;;;;;3.57;100.00;100065.38;5110410;28;20062;-52
2023/11/29 09:57:42;;;;;;;6.30;2.38;;;;;;;3.78;100.00;100068.72;5114223;28;20044;-51
2023/11/29 10:00:14;;;;;;;5.47;2.60;;;;;;;3.69;100.00;100067.38;5114265;28;20506;-52
2023/11/29 10:02:42;;;;;;;6.60;2.57;;;;;;;3.37;100.00;100078.41;5114451;28;20043;-47
2023/11/29 10:05:13;;;;;;;7.57;2.40;;;;;;;3.20;100.00;100076.63;5095969;28;20082;-48
2023/11/29 10:07:41;;;;;;;5.95;2.80;;;;;;;3.07;100.00;100085.91;5114014;28;20482;-51
2023/11/29 10:10:19;;;;;;;7.72;2.67;;;;;;;2.93;100.00;100085.66;5113803;28;20420;-51
2023/11/29 10:12:52;;;;;;;6.65;2.45;;;;;;;2.81;100.00;100085.31;5113953;28;20105;-48
2023/11/29 10:15:20;;;;;;;9.35;2.67;;;;;;;2.77;100.00;100083.78;5113447;28;20402;-49
2023/11/29 10:17:52;;;;;;;9.30;2.90;;;;;;;2.88;100.00;100086.72;5113649;28;20040;-48
2023/11/29 10:20:29;;;;;;;6.68;2.72;;;;;;;2.91;100.00;100077.13;5114016;28;20070;-47
2023/11/29 10:22:57;;;;;;;6.22;2.83;;;;;;;2.85;100.00;100080.81;5113755;28;20077;-46
2023/11/29 10:25:29;;;;;;;7.20;3.13;;;;;;;2.87;100.00;100079.84;5113665;28;20517;-48
2023/11/29 10:27:58;;;;;;;6.82;2.85;;;;;;;2.84;100.00;100087.78;5113912;28;20044;-49
2023/11/29 10:30:27;;;;;;;9.52;3.40;;;;;;;2.80;100.00;100086.22;5095265;28;20483;-49
2023/11/29 10:32:55;;;;;;;8.82;3.45;;;;;;;2.78;100.00;100084.59;5113490;28;20071;-49
2023/11/29 10:35:25;;;;;;;11.32;3.70;;;;;;;2.75;100.00;100084.75;5113508;28;20062;-49
2023/11/29 10:37:58;;;;;;;9.00;3.22;;;;;;;2.76;100.00;100078.66;5112925;28;20492;-47
2023/11/29 10:40:26;;;;;;;;;;;;;;;2.72;100.00;100083.13;5113896;28;20047;-46
2023/11/29 10:42:57;;;;;;;7.13;2.75;;;;;;;2.75;100.00;100088.19;5113362;28;20040;-47
2023/11/29 10:45:28;;;;;;;6.05;2.60;;;;;;;2.74;100.00;100088.25;5113279;28;20428;-46
2023/11/29 10:47:59;;;;;;;6.38;2.70;;;;;;;2.63;100.00;100092.19;5113335;28;20040;-47
2023/11/29 10:50:30;;;;;;;7.57;2.92;;;;;;;2.66;100.00;100091.22;5095018;28;20051;-49
2023/11/29 10:52:58;;;;;;;5.85;2.50;;;;;;;2.61;100.00;100087.97;5113318;28;20130;-46
2023/11/29 10:55:27;;;;;;;7.60;2.47;;;;;;;2.60;100.00;100094.88;5113139;28;20043;-47
2023/11/29 10:58:00;;;;;;;5.68;2.20;;;;;;;2.62;100.00;100095.69;5112598;28;20044;-48
2023/11/29 11:00:30;;;;;;;5.95;2.33;;;;;;;2.66;100.00;100088.63;5112855;28;20447;-46
2023/11/29 11:02:58;;;;;;;6.25;2.33;;;;;;;2.61;100.00;100088.78;5113313;28;20479;-47
2023/11/29 11:05:30;;;;;;;6.85;2.60;;;;;;;2.61;100.00;100093.16;5112859;28;20043;-47
2023/11/29 11:07:59;;;;;;;6.25;2.50;;;;;;;2.59;100.00;100100.16;5113095;28;20059;-48
2023/11/29 11:10:30;;;;;;;16.20;4.50;;;;;;;2.54;100.00;100098.59;5112609;28;20865;-46
2023/11/29 11:12:59;;;;;;;9.73;3.00;;;;;;;2.54;100.00;100093.41;5112746;28;20054;-49
2023/11/29 11:15:28;;;;;;;7.53;3.40;;;;;;;2.52;100.00;100095.25;5094561;28;20490;-46
2023/11/29 11:18:26;;;;;;;8.27;2.55;;;;;;;2.50;100.00;100096.22;5112777;28;20075;-46
2023/11/29 11:20:56;;;;;;;8.10;2.70;;;;;;;2.48;100.00;100098.88;5112967;28;20072;-47
2023/11/29 11:23:28;;;;;;;7.78;2.78;;;;;;;2.47;100.00;100102.38;5112808;28;20054;-50
2023/11/29 11:25:57;;;;;;;8.15;2.90;;;;;;;2.44;100.00;100102.53;5112959;28;20040;-50
2023/11/29 11:28:29;;;;;;;4.13;2.08;;;;;;;2.47;100.00;100104.97;5112487;28;20055;-49
2023/11/29 11:31:02;;;;;;;6.35;2.15;;;;;;;2.49;100.00;100103.16;5112738;28;20071;-52